Time;durP1;ratioP1;P1;durP2;ratioP2;P2;SDS_P1;SDS_P2;PMS_P1;PMS_P2;Temp;Humidity;BMP_temperature;BMP_pressure;BME280_temperature;BME280_humidity;BME280_pressure;Samples;Min_cycle;Max_cycle;Signal;HPM_P1;HPM_P2
2021/09/18 00:00:31;;;;;;;25.80;21.27;;;15.00;99.90;;;;;;5056444;28;20194;-69
2021/09/18 00:02:56;;;;;;;43.20;27.33;;;15.00;99.90;;;;;;5073623;28;20628;-69
2021/09/18 00:05:22;;;;;;;44.57;28.17;;;14.90;99.90;;;;;;5069795;28;20230;-70
2021/09/18 00:07:47;;;;;;;42.77;31.10;;;14.90;99.90;;;;;;5053950;28;20266;-70
2021/09/18 00:10:13;;;;;;;37.43;25.80;;;14.90;99.90;;;;;;5053401;28;20589;-70
2021/09/18 00:12:38;;;;;;;45.77;30.90;;;14.90;99.90;;;;;;5053431;28;20164;-70
2021/09/18 00:15:05;;;;;;;42.00;28.00;;;14.80;99.90;;;;;;5053167;28;20187;-69
2021/09/18 00:17:30;;;;;;;38.53;27.60;;;14.80;99.90;;;;;;5053449;28;20194;-69
2021/09/18 00:19:56;;;;;;;41.43;26.70;;;14.80;99.90;;;;;;5053217;28;20781;-70
2021/09/18 00:22:22;;;;;;;35.67;25.93;;;14.80;99.90;;;;;;5053044;28;20183;-70
2021/09/18 00:24:47;;;;;;;49.57;33.03;;;14.70;99.90;;;;;;5053571;28;20682;-69
2021/09/18 00:27:13;;;;;;;44.50;30.50;;;14.70;99.90;;;;;;5052995;28;20163;-69
2021/09/18 00:29:39;;;;;;;35.10;25.47;;;14.60;99.90;;;;;;5054271;28;20652;-69
2021/09/18 00:32:04;;;;;;;31.00;23.67;;;14.60;99.90;;;;;;5054757;28;20181;-70
2021/09/18 00:34:30;;;;;;;35.80;25.63;;;14.60;99.90;;;;;;5052982;28;20186;-69
2021/09/18 00:36:56;;;;;;;31.90;25.37;;;14.60;99.90;;;;;;5053028;28;20430;-70
2021/09/18 00:39:22;;;;;;;31.47;23.63;;;14.60;99.90;;;;;;5053020;28;20168;-70
2021/09/18 00:41:47;;;;;;;32.33;24.40;;;14.60;99.90;;;;;;5053433;28;20177;-70
2021/09/18 00:44:18;;;;;;;34.10;22.87;;;14.60;99.90;;;;;;5052875;28;20155;-69
2021/09/18 00:46:46;;;;;;;28.67;20.80;;;14.60;99.90;;;;;;5052935;28;20182;-69
2021/09/18 00:49:12;;;;;;;28.13;22.00;;;14.60;99.90;;;;;;5052750;28;20402;-69
2021/09/18 00:51:38;;;;;;;29.40;21.90;;;14.60;99.90;;;;;;5052818;28;20405;-69
2021/09/18 00:54:06;;;;;;;41.73;27.60;;;14.50;99.90;;;;;;5052504;28;20205;-69
2021/09/18 00:56:33;;;;;;;42.13;27.33;;;14.50;99.90;;;;;;5052748;28;20803;-69
2021/09/18 00:58:58;;;;;;;38.00;26.50;;;14.50;99.90;;;;;;5053145;28;20441;-69
2021/09/18 01:01:24;;;;;;;37.30;26.40;;;14.50;99.90;;;;;;5052946;28;20460;-69
2021/09/18 01:03:49;;;;;;;34.37;24.20;;;14.40;99.90;;;;;;5053293;28;20194;-69
2021/09/18 01:06:15;;;;;;;29.80;22.17;;;14.40;99.90;;;;;;5060395;28;20245;-69
2021/09/18 01:08:42;;;;;;;29.80;23.30;;;14.50;99.90;;;;;;5072607;28;20181;-69
2021/09/18 01:11:08;;;;;;;29.07;22.50;;;14.40;99.90;;;;;;5072703;28;20612;-70
2021/09/18 01:13:34;;;;;;;34.90;24.50;;;14.40;99.90;;;;;;5072485;28;20387;-69
2021/09/18 01:16:00;;;;;;;37.77;25.03;;;14.30;99.90;;;;;;5072067;28;20231;-69
2021/09/18 01:18:26;;;;;;;36.67;26.40;;;14.30;99.90;;;;;;5072641;28;20388;-69
2021/09/18 01:20:51;;;;;;;35.50;24.40;;;14.30;99.90;;;;;;5072625;28;20181;-69
2021/09/18 01:23:22;;;;;;;38.00;25.30;;;14.30;99.90;;;;;;5072713;28;20525;-69
2021/09/18 01:25:48;;;;;;;45.70;29.27;;;14.40;99.90;;;;;;5068440;28;20182;-69
2021/09/18 01:28:14;;;;;;;34.10;24.97;;;14.30;99.90;;;;;;5052519;28;20394;-69
2021/09/18 01:30:40;;;;;;;32.40;24.37;;;14.40;99.90;;;;;;5052639;28;20405;-69
2021/09/18 01:33:08;;;;;;;29.13;22.93;;;14.40;99.90;;;;;;5072412;28;20397;-69
2021/09/18 01:35:33;;;;;;;31.30;23.00;;;14.40;99.90;;;;;;5072426;28;20192;-69
2021/09/18 01:38:00;;;;;;;34.30;24.20;;;14.40;99.90;;;;;;5066006;28;20463;-69
2021/09/18 01:40:28;;;;;;;33.70;24.40;;;14.50;99.90;;;;;;5052020;28;20171;-69
2021/09/18 01:42:55;;;;;;;34.67;24.17;;;14.50;99.90;;;;;;5052110;28;20424;-69
2021/09/18 01:45:21;;;;;;;32.47;22.70;;;14.50;99.90;;;;;;5052517;28;20430;-70
2021/09/18 01:47:52;;;;;;;31.93;25.60;;;14.50;99.90;;;;;;5052768;28;20401;-70
2021/09/18 01:52:59;;;;;;;43.27;29.30;;;14.50;99.90;;;;;;5069805;28;20550;-70
2021/09/18 01:55:25;;;;;;;44.03;27.70;;;14.50;99.90;;;;;;5069118;28;20409;-69
2021/09/18 01:57:52;;;;;;;35.50;25.50;;;14.60;99.90;;;;;;5070599;28;20389;-69
2021/09/18 02:00:18;;;;;;;36.63;26.10;;;14.60;99.90;;;;;;5052732;28;20422;-69
2021/09/18 02:02:44;;;;;;;35.13;24.70;;;14.50;99.90;;;;;;5050102;28;20791;-69
2021/09/18 02:05:11;;;;;;;38.97;25.30;;;14.50;99.90;;;;;;5049815;28;20418;-70
2021/09/18 02:07:37;;;;;;;45.67;25.17;;;14.50;99.90;;;;;;5048037;28;20444;-70
2021/09/18 02:10:05;;;;;;;30.00;22.17;;;14.50;99.90;;;;;;5049618;28;20433;-69
2021/09/18 02:12:30;;;;;;;29.17;21.10;;;14.50;99.90;;;;;;5050147;28;20456;-69
2021/09/18 02:14:56;;;;;;;30.27;22.17;;;14.50;99.90;;;;;;5050137;28;20394;-69
2021/09/18 02:17:21;;;;;;;25.97;19.67;;;14.60;99.90;;;;;;5050003;28;20160;-69
2021/09/18 02:19:47;;;;;;;29.67;22.07;;;14.60;99.90;;;;;;5049500;28;20164;-70
2021/09/18 02:22:12;;;;;;;41.13;23.27;;;14.60;99.90;;;;;;5048963;28;20534;-70
2021/09/18 02:24:38;;;;;;;29.20;22.13;;;14.60;99.90;;;;;;5049613;28;20159;-70
2021/09/18 02:27:03;;;;;;;32.43;24.17;;;14.60;99.90;;;;;;5049476;28;20194;-69
2021/09/18 02:29:29;;;;;;;34.30;24.83;;;14.60;99.90;;;;;;5049814;28;20647;-70
2021/09/18 02:31:54;;;;;;;33.50;22.73;;;14.60;99.90;;;;;;5049046;28;20199;-70
2021/09/18 02:34:20;;;;;;;28.47;22.90;;;14.60;99.90;;;;;;5049920;28;20158;-70
2021/09/18 02:36:45;;;;;;;27.87;22.27;;;14.60;99.90;;;;;;5049547;28;20163;-70
2021/09/18 02:39:11;;;;;;;31.57;24.47;;;14.60;99.90;;;;;;5049203;28;20206;-69
2021/09/18 02:41:36;;;;;;;29.23;22.90;;;14.60;99.90;;;;;;5049344;28;20162;-69
2021/09/18 02:44:02;;;;;;;31.60;22.80;;;14.60;99.90;;;;;;5049126;28;20202;-69
2021/09/18 02:46:29;;;;;;;32.43;22.43;;;14.60;99.90;;;;;;5048927;28;20642;-69
2021/09/18 02:48:54;;;;;;;27.50;22.17;;;14.60;99.90;;;;;;5049445;28;20167;-69
2021/09/18 02:51:20;;;;;;;34.13;25.20;;;14.60;99.90;;;;;;5049001;28;20989;-69
2021/09/18 02:53:45;;;;;;;31.57;21.57;;;14.60;99.90;;;;;;5049166;28;20159;-69
2021/09/18 02:56:11;;;;;;;26.13;19.97;;;14.60;99.90;;;;;;5049399;28;20172;-69
2021/09/18 02:58:37;;;;;;;26.77;22.53;;;14.50;99.90;;;;;;5049802;28;20255;-71
2021/09/18 03:01:03;;;;;;;26.37;21.47;;;14.50;99.90;;;;;;5049029;28;20167;-71
2021/09/18 03:03:28;;;;;;;42.90;25.93;;;14.50;99.90;;;;;;5040167;28;20402;-71
2021/09/18 03:05:54;;;;;;;39.40;26.17;;;14.50;99.90;;;;;;5033274;28;20214;-71
2021/09/18 03:08:19;;;;;;;43.37;27.33;;;14.50;99.90;;;;;;5021157;28;20166;-71
2021/09/18 03:10:46;;;;;;;31.70;23.70;;;14.40;99.90;;;;;;5035640;28;20172;-71
2021/09/18 03:13:11;;;;;;;35.43;25.93;;;14.40;99.90;;;;;;5035783;28;20265;-71
2021/09/18 03:15:37;;;;;;;35.37;22.47;;;14.40;99.90;;;;;;5035575;28;20484;-71
2021/09/18 03:18:02;;;;;;;27.80;21.87;;;14.30;99.90;;;;;;5035466;28;20156;-71
2021/09/18 03:20:28;;;;;;;25.63;21.40;;;14.30;99.90;;;;;;5035385;28;20190;-71
2021/09/18 03:22:53;;;;;;;23.80;21.23;;;14.20;99.90;;;;;;5018420;28;20183;-71
2021/09/18 03:25:19;;;;;;;38.00;25.83;;;14.20;99.90;;;;;;5029941;28;20206;-71
2021/09/18 03:27:45;;;;;;;38.30;26.70;;;14.20;99.90;;;;;;5029655;28;20178;-71
2021/09/18 03:30:11;;;;;;;47.80;28.80;;;14.20;99.90;;;;;;5030714;28;20596;-71
2021/09/18 03:32:36;;;;;;;45.77;31.60;;;14.10;99.90;;;;;;5034500;28;20228;-71
2021/09/18 03:35:02;;;;;;;38.27;28.47;;;14.10;99.90;;;;;;5031824;28;20425;-71
2021/09/18 03:37:29;;;;;;;33.00;24.50;;;14.10;99.90;;;;;;5015350;28;20246;-71
2021/09/18 03:39:55;;;;;;;31.43;24.40;;;14.10;99.90;;;;;;5015379;28;20390;-71
2021/09/18 03:42:20;;;;;;;27.07;23.83;;;14.10;99.90;;;;;;5015267;28;20557;-71
2021/09/18 03:44:48;;;;;;;27.57;21.70;;;14.10;99.90;;;;;;5022104;28;20178;-71
2021/09/18 03:47:14;;;;;;;27.13;20.70;;;14.00;99.90;;;;;;5034642;28;20182;-71
2021/09/18 03:49:40;;;;;;;27.17;21.83;;;14.00;99.90;;;;;;5031706;28;20422;-71
2021/09/18 03:52:05;;;;;;;29.53;21.13;;;14.00;99.90;;;;;;5034660;28;20202;-71
2021/09/18 03:54:31;;;;;;;23.00;19.67;;;14.00;99.90;;;;;;5034855;28;20197;-71
2021/09/18 03:56:56;;;;;;;26.23;20.33;;;14.00;99.90;;;;;;5034492;28;20734;-71
2021/09/18 03:59:22;;;;;;;24.87;20.53;;;14.00;99.90;;;;;;5033930;28;20714;-71
2021/09/18 04:01:47;;;;;;;26.67;22.00;;;13.90;99.90;;;;;;5034637;28;20524;-71
2021/09/18 04:04:13;;;;;;;26.03;20.67;;;13.90;99.90;;;;;;5032196;28;20196;-71
2021/09/18 04:06:39;;;;;;;27.37;20.70;;;13.90;99.90;;;;;;5034703;28;20168;-71
2021/09/18 04:09:05;;;;;;;26.50;21.10;;;13.90;99.90;;;;;;5034596;28;20196;-71
2021/09/18 04:11:30;;;;;;;27.07;21.57;;;13.90;99.90;;;;;;5032041;28;20441;-71
2021/09/18 04:13:56;;;;;;;26.30;20.43;;;13.90;99.90;;;;;;5026925;28;20175;-71
2021/09/18 04:16:21;;;;;;;24.60;20.20;;;13.90;99.90;;;;;;5022369;28;20165;-71
2021/09/18 04:18:47;;;;;;;28.10;21.17;;;13.90;99.90;;;;;;5033834;28;20243;-71
2021/09/18 04:21:13;;;;;;;25.77;22.33;;;13.90;99.90;;;;;;5034012;28;20177;-71
2021/09/18 04:23:38;;;;;;;24.50;19.97;;;13.90;99.90;;;;;;5034239;28;20926;-71
2021/09/18 04:26:04;;;;;;;28.03;22.53;;;13.90;99.90;;;;;;5033287;28;20291;-71
2021/09/18 04:28:32;;;;;;;26.67;20.50;;;13.90;99.90;;;;;;5025968;28;20747;-71
2021/09/18 04:30:58;;;;;;;28.70;21.43;;;13.90;99.90;;;;;;5037582;28;20796;-71
2021/09/18 04:33:23;;;;;;;29.27;21.70;;;13.80;99.90;;;;;;5033675;28;20494;-71
2021/09/18 04:35:49;;;;;;;25.70;20.63;;;13.80;99.90;;;;;;5034093;28;20160;-71
2021/09/18 04:38:15;;;;;;;28.40;20.43;;;13.80;99.90;;;;;;5032449;28;20201;-71
2021/09/18 04:40:40;;;;;;;27.00;21.60;;;13.80;99.90;;;;;;5034252;28;20618;-71
2021/09/18 04:43:06;;;;;;;27.40;20.37;;;13.80;99.90;;;;;;5034017;28;20150;-71
2021/09/18 04:45:31;;;;;;;29.27;21.40;;;13.80;99.90;;;;;;5032036;28;20637;-71
2021/09/18 04:47:57;;;;;;;23.33;19.13;;;13.80;99.90;;;;;;5033818;28;20165;-71
2021/09/18 04:50:23;;;;;;;26.10;20.67;;;13.70;99.90;;;;;;5033809;28;20158;-71
2021/09/18 04:52:48;;;;;;;27.50;18.90;;;13.70;99.90;;;;;;5033561;28;20204;-71
2021/09/18 04:55:14;;;;;;;24.70;19.00;;;13.60;99.90;;;;;;5033645;28;20261;-71
2021/09/18 04:57:40;;;;;;;26.37;19.87;;;13.60;99.90;;;;;;5033378;28;20251;-71
2021/09/18 05:00:06;;;;;;;29.13;20.77;;;13.60;99.90;;;;;;5032099;28;20452;-71
2021/09/18 05:02:32;;;;;;;25.27;19.23;;;13.60;99.90;;;;;;5033649;28;20686;-71
2021/09/18 05:04:57;;;;;;;28.97;21.80;;;13.50;99.90;;;;;;5033620;28;20449;-71
2021/09/18 05:07:23;;;;;;;28.83;22.87;;;13.50;99.90;;;;;;5033466;28;20173;-71
2021/09/18 05:09:48;;;;;;;28.80;21.93;;;13.50;99.90;;;;;;5028761;28;20281;-71
2021/09/18 05:12:14;;;;;;;29.00;23.30;;;13.50;99.90;;;;;;5033354;28;20693;-71
2021/09/18 05:14:39;;;;;;;35.60;26.20;;;13.50;99.90;;;;;;5033711;28;20158;-71
2021/09/18 05:17:05;;;;;;;30.40;24.20;;;13.60;99.90;;;;;;5033547;28;20532;-71
2021/09/18 05:19:31;;;;;;;33.83;23.17;;;13.50;99.90;;;;;;5033143;28;20239;-71
2021/09/18 05:21:56;;;;;;;31.73;24.17;;;13.50;99.90;;;;;;5033471;28;20341;-71
2021/09/18 05:24:22;;;;;;;29.73;24.33;;;13.60;99.90;;;;;;5033842;28;20626;-71
2021/09/18 05:26:48;;;;;;;33.60;24.70;;;13.60;99.90;;;;;;5030861;28;20701;-71
2021/09/18 05:29:13;;;;;;;37.80;25.00;;;13.60;99.90;;;;;;5033164;28;20410;-71
2021/09/18 05:31:39;;;;;;;30.93;22.93;;;13.60;99.90;;;;;;5033138;28;20195;-71
2021/09/18 05:34:04;;;;;;;33.33;24.40;;;13.70;99.90;;;;;;5033441;28;20142;-71
2021/09/18 05:36:30;;;;;;;32.80;22.70;;;13.70;99.90;;;;;;5032840;28;20180;-71
2021/09/18 05:38:56;;;;;;;31.03;23.50;;;13.70;99.90;;;;;;5033499;28;20166;-71
2021/09/18 05:41:21;;;;;;;28.40;21.70;;;13.80;99.90;;;;;;5032978;28;20265;-71
2021/09/18 05:43:47;;;;;;;26.53;21.60;;;13.80;99.90;;;;;;5014671;28;20175;-71
2021/09/18 05:46:12;;;;;;;26.70;21.33;;;13.90;99.90;;;;;;5024366;28;20177;-71
2021/09/18 05:48:38;;;;;;;32.47;20.93;;;13.80;99.90;;;;;;5032872;28;20587;-71
2021/09/18 05:51:04;;;;;;;30.37;22.33;;;13.90;99.90;;;;;;5032742;28;20206;-71
2021/09/18 05:53:29;;;;;;;30.53;21.87;;;13.90;99.90;;;;;;5033130;28;20181;-71
2021/09/18 05:55:55;;;;;;;30.23;21.97;;;13.90;99.90;;;;;;5031472;28;20657;-71
2021/09/18 05:58:20;;;;;;;31.40;22.10;;;13.90;99.90;;;;;;5017122;28;20180;-71
2021/09/18 06:00:46;;;;;;;30.27;22.57;;;13.90;99.90;;;;;;5013391;28;20511;-71
2021/09/18 06:03:11;;;;;;;31.20;24.23;;;13.90;99.90;;;;;;5018227;28;20173;-71
2021/09/18 06:05:37;;;;;;;31.67;22.13;;;13.90;99.90;;;;;;5032695;28;20177;-71
2021/09/18 06:08:03;;;;;;;32.10;22.33;;;13.90;99.90;;;;;;5032877;28;20169;-71
2021/09/18 06:10:28;;;;;;;28.00;21.03;;;14.00;99.90;;;;;;5032862;28;20161;-71
2021/09/18 06:12:54;;;;;;;27.13;21.83;;;14.00;99.90;;;;;;5032764;28;20186;-71
2021/09/18 06:15:19;;;;;;;27.10;21.67;;;14.00;99.90;;;;;;5032385;28;20162;-71
2021/09/18 06:17:45;;;;;;;26.97;21.47;;;14.00;99.90;;;;;;5032904;28;20649;-71
2021/09/18 06:20:11;;;;;;;31.70;21.67;;;14.00;99.90;;;;;;5032563;28;20707;-71
2021/09/18 06:22:36;;;;;;;27.50;20.93;;;14.00;99.90;;;;;;5033214;28;20160;-71
2021/09/18 06:25:02;;;;;;;27.60;21.57;;;14.00;99.90;;;;;;5032069;28;20772;-71
2021/09/18 06:27:28;;;;;;;27.43;21.87;;;14.10;99.90;;;;;;5032600;28;20657;-71
2021/09/18 06:29:54;;;;;;;28.97;22.50;;;14.10;99.90;;;;;;5032423;28;20393;-71
2021/09/18 06:32:20;;;;;;;30.43;22.37;;;14.10;99.90;;;;;;5031751;28;20479;-71
2021/09/18 06:34:45;;;;;;;32.70;24.80;;;14.10;99.90;;;;;;5032625;28;20167;-71
2021/09/18 06:37:11;;;;;;;29.93;21.80;;;14.20;99.90;;;;;;5032967;28;20175;-71
2021/09/18 06:39:36;;;;;;;31.60;25.47;;;14.20;99.90;;;;;;5036094;28;20533;-71
2021/09/18 06:42:02;;;;;;;32.60;24.07;;;14.30;99.90;;;;;;5035960;28;20174;-71
2021/09/18 06:44:28;;;;;;;38.37;25.37;;;14.30;99.90;;;;;;5036085;28;20639;-71
2021/09/18 06:46:53;;;;;;;36.10;25.60;;;14.40;99.90;;;;;;5036359;28;20401;-71
2021/09/18 06:49:19;;;;;;;32.67;24.13;;;14.40;99.90;;;;;;5035947;28;20187;-71
2021/09/18 06:51:45;;;;;;;35.40;26.40;;;14.50;99.90;;;;;;5036202;28;20238;-71
2021/09/18 06:54:10;;;;;;;31.07;23.17;;;14.50;99.90;;;;;;5036003;28;20542;-71
2021/09/18 06:56:36;;;;;;;32.07;23.67;;;14.60;99.90;;;;;;5035663;28;20169;-71
2021/09/18 06:59:01;;;;;;;24.67;21.07;;;14.60;99.90;;;;;;5036035;28;20550;-71
2021/09/18 07:01:27;;;;;;;30.40;22.53;;;14.70;99.90;;;;;;5035553;28;20257;-71
2021/09/18 07:03:54;;;;;;;31.13;22.53;;;14.80;99.90;;;;;;5035769;28;20165;-71
2021/09/18 07:06:20;;;;;;;31.40;21.90;;;14.80;99.90;;;;;;5030663;28;20221;-71
2021/09/18 07:08:46;;;;;;;33.13;22.40;;;14.90;99.90;;;;;;5019004;28;20409;-71
2021/09/18 07:11:12;;;;;;;31.37;23.27;;;14.90;99.90;;;;;;5023810;28;20196;-71
2021/09/18 07:13:37;;;;;;;29.93;21.90;;;15.10;99.90;;;;;;5035393;28;20171;-71
2021/09/18 07:16:03;;;;;;;36.10;23.00;;;15.10;99.90;;;;;;5035516;28;20192;-71
2021/09/18 07:18:29;;;;;;;30.37;22.00;;;15.10;99.90;;;;;;5035624;28;20157;-71
2021/09/18 07:20:55;;;;;;;33.97;23.83;;;15.20;99.90;;;;;;5035579;28;20431;-71
2021/09/18 07:23:20;;;;;;;35.20;21.50;;;15.30;99.90;;;;;;5035720;28;20164;-71
2021/09/18 07:25:46;;;;;;;32.10;21.83;;;15.30;99.90;;;;;;5035491;28;20267;-71
2021/09/18 07:28:12;;;;;;;32.03;24.10;;;15.40;99.90;;;;;;5035234;28;20169;-71
2021/09/18 07:30:38;;;;;;;29.13;22.47;;;15.50;99.90;;;;;;5035013;28;20165;-71
2021/09/18 07:33:04;;;;;;;33.37;23.20;;;15.60;99.90;;;;;;5035379;28;20175;-71
2021/09/18 07:35:29;;;;;;;33.13;21.97;;;15.60;99.90;;;;;;5035683;28;20232;-71
2021/09/18 07:37:58;;;;;;;36.27;23.43;;;15.60;99.90;;;;;;5035852;28;20465;-71
2021/09/18 07:40:23;;;;;;;29.40;22.40;;;15.70;99.90;;;;;;5034902;28;20146;-72
2021/09/18 07:42:49;;;;;;;33.60;23.57;;;15.70;99.90;;;;;;5035213;28;20415;-72
2021/09/18 07:45:14;;;;;;;26.70;21.90;;;15.80;99.90;;;;;;5034821;28;20176;-72
2021/09/18 07:47:40;;;;;;;28.40;22.67;;;15.90;99.90;;;;;;5035225;28;20165;-72
2021/09/18 07:50:07;;;;;;;33.97;23.00;;;16.00;99.90;;;;;;5035442;28;20240;-71
2021/09/18 07:52:32;;;;;;;30.43;22.90;;;16.00;99.90;;;;;;5034664;28;20514;-71
2021/09/18 07:54:58;;;;;;;27.77;22.47;;;16.10;99.90;;;;;;5034555;28;20505;-71
2021/09/18 07:57:24;;;;;;;31.00;25.20;;;16.10;99.90;;;;;;5034965;28;20252;-72
2021/09/18 07:59:49;;;;;;;32.40;24.20;;;16.20;99.90;;;;;;5034573;28;20230;-72
2021/09/18 08:02:14;;;;;;;39.47;25.53;;;16.30;99.90;;;;;;5034585;28;20184;-72
2021/09/18 08:04:40;;;;;;;37.93;25.83;;;16.40;99.90;;;;;;5034971;28;20161;-72
2021/09/18 08:07:06;;;;;;;38.47;28.10;;;16.50;99.90;;;;;;5035056;28;20219;-72
2021/09/18 08:09:31;;;;;;;37.50;26.57;;;16.50;99.90;;;;;;5034866;28;20164;-72
2021/09/18 08:11:58;;;;;;;44.00;31.17;;;16.60;99.90;;;;;;5034097;28;20231;-72
2021/09/18 08:14:26;;;;;;;50.30;34.90;;;16.70;99.90;;;;;;5034562;28;20150;-72
2021/09/18 08:16:52;;;;;;;43.90;32.97;;;16.70;99.90;;;;;;5034418;28;20403;-72
2021/09/18 08:19:19;;;;;;;45.70;32.97;;;16.80;99.90;;;;;;5034651;28;20974;-72
2021/09/18 08:21:44;;;;;;;48.13;33.27;;;16.90;99.90;;;;;;5034316;28;20709;-72
2021/09/18 08:24:10;;;;;;;48.40;34.30;;;17.00;99.90;;;;;;5033746;28;20503;-72
2021/09/18 08:26:36;;;;;;;48.90;33.30;;;17.10;99.90;;;;;;5034364;28;20229;-72
2021/09/18 08:29:02;;;;;;;49.97;34.63;;;17.10;99.90;;;;;;5033981;28;20168;-72
2021/09/18 08:31:27;;;;;;;44.07;31.13;;;17.20;99.90;;;;;;5033717;28;20291;-72
2021/09/18 08:33:53;;;;;;;44.80;31.77;;;17.30;99.90;;;;;;5034282;28;20179;-72
2021/09/18 08:36:19;;;;;;;43.43;32.33;;;17.40;99.90;;;;;;5034186;28;20181;-72
2021/09/18 08:38:44;;;;;;;46.23;32.43;;;17.40;99.90;;;;;;5034075;28;20154;-72
2021/09/18 08:41:10;;;;;;;50.03;34.67;;;17.50;99.90;;;;;;5033962;28;20172;-72
2021/09/18 08:43:36;;;;;;;45.43;32.50;;;17.60;99.90;;;;;;5022259;28;20237;-72
2021/09/18 08:46:02;;;;;;;47.63;33.27;;;17.70;99.90;;;;;;5014073;28;20161;-72
2021/09/18 08:48:28;;;;;;;49.10;32.53;;;17.80;99.90;;;;;;5014685;28;20397;-72
2021/09/18 08:50:54;;;;;;;49.17;36.83;;;17.80;99.90;;;;;;5013982;28;20190;-72
2021/09/18 08:53:20;;;;;;;60.37;39.07;;;17.90;99.90;;;;;;5025002;28;20694;-72
2021/09/18 08:55:55;;;;;;;54.90;37.87;;;18.00;99.90;;;;;;5033463;28;20219;-72
2021/09/18 08:58:21;;;;;;;52.63;34.60;;;18.10;99.90;;;;;;5033761;28;20391;-72
2021/09/18 09:00:49;;;;;;;52.03;34.83;;;18.20;99.90;;;;;;5033196;28;20766;-72
2021/09/18 09:03:26;;;;;;;47.23;31.40;;;18.30;99.90;;;;;;5034128;28;20584;-72
2021/09/18 09:06:01;;;;;;;43.23;30.40;;;18.40;99.90;;;;;;5033458;28;20504;-72
2021/09/18 09:08:26;;;;;;;49.50;32.73;;;18.50;99.90;;;;;;5033377;28;20399;-72
2021/09/18 09:10:53;;;;;;;34.87;25.80;;;18.60;99.90;;;;;;5033374;28;20403;-72
2021/09/18 09:13:22;;;;;;;33.07;25.03;;;18.70;99.90;;;;;;5033111;28;20256;-72
2021/09/18 09:16:04;;;;;;;33.73;22.90;;;19.00;99.90;;;;;;5033573;28;20450;-72
2021/09/18 09:18:36;;;;;;;25.83;20.20;;;19.50;99.90;;;;;;5033722;28;20406;-72
2021/09/18 09:24:13;;;;;;;19.17;15.83;;;20.60;99.90;;;;;;5069765;28;20520;-72
2021/09/18 09:26:42;;;;;;;24.60;17.27;;;21.10;99.90;;;;;;5069642;28;20383;-72
2021/09/18 09:29:09;;;;;;;21.37;15.37;;;21.50;99.90;;;;;;5050182;28;20426;-72
2021/09/18 09:31:36;;;;;;;20.80;14.70;;;21.90;99.90;;;;;;5050396;28;20462;-72
2021/09/18 09:34:14;;;;;;;24.87;18.07;;;22.20;99.90;;;;;;5066411;28;20898;-72
2021/09/18 09:36:46;;;;;;;24.80;17.10;;;22.50;99.90;;;;;;5070095;28;20382;-72
2021/09/18 09:39:17;;;;;;;25.33;15.47;;;22.40;99.90;;;;;;5070108;28;20378;-72
2021/09/18 09:41:52;;;;;;;26.43;16.60;;;22.30;99.90;;;;;;5069879;28;20871;-72
2021/09/18 09:44:21;;;;;;;22.43;14.40;;;22.10;99.90;;;;;;5063941;28;20775;-72
2021/09/18 09:47:09;;;;;;;22.47;16.27;;;21.90;99.90;;;;;;5050289;28;20414;-72
2021/09/18 09:52:26;;;;;;;24.57;16.70;;;21.80;99.90;;;;;;5070047;28;21118;-72
2021/09/18 09:54:55;;;;;;;23.07;18.23;;;21.50;99.90;;;;;;5070032;28;20406;-72
2021/09/18 09:57:21;;;;;;;25.80;15.80;;;21.40;99.90;;;;;;5070438;28;20394;-72
2021/09/18 09:59:47;;;;;;;19.77;13.43;;;21.30;99.90;;;;;;5070026;28;20501;-72
2021/09/18 10:02:14;;;;;;;19.43;14.27;;;21.20;99.90;;;;;;5056848;28;20410;-72
2021/09/18 10:04:40;;;;;;;22.07;15.73;;;21.20;99.90;;;;;;5049890;28;20470;-72
2021/09/18 10:07:09;;;;;;;22.83;16.27;;;21.20;99.90;;;;;;5050151;28;20449;-72
2021/09/18 10:09:36;;;;;;;19.30;14.27;;;21.20;99.90;;;;;;5049933;28;20391;-72
2021/09/18 10:12:03;;;;;;;14.20;11.53;;;21.20;99.90;;;;;;5049604;28;20446;-72
2021/09/18 10:14:31;;;;;;;13.13;10.60;;;21.30;99.90;;;;;;5049841;28;20422;-72
2021/09/18 10:16:58;;;;;;;13.43;10.17;;;21.30;99.90;;;;;;5050256;28;20433;-72
2021/09/18 10:19:55;;;;;;;9.20;7.80;;;21.30;99.90;;;;;;5050324;28;20422;-72
2021/09/18 10:25:17;;;;;;;9.53;8.27;;;21.10;99.90;;;;;;5048635;28;20521;-72
2021/09/18 10:28:08;;;;;;;13.83;8.63;;;21.00;99.90;;;;;;5049492;28;20418;-72
2021/09/18 10:33:38;;;;;;;14.30;11.93;;;20.90;99.90;;;;;;5069943;28;20535;-71
2021/09/18 10:38:46;;;;;;;17.50;13.57;;;20.50;99.90;;;;;;5089927;28;21038;-72
2021/09/18 10:46:49;;;;;;;10.80;9.60;;;20.40;99.90;;;;;;5172975;27;20534;-71
2021/09/18 11:03:00;;;;;;;15.13;11.40;;;20.30;99.90;;;;;;5070153;28;20524;-72
2021/09/18 11:08:23;;;;;;;12.13;8.83;;;20.70;99.90;;;;;;5069985;28;20602;-72
2021/09/18 11:10:51;;;;;;;11.33;8.20;;;20.60;99.90;;;;;;5056226;28;20782;-72
2021/09/18 11:13:20;;;;;;;9.93;6.20;;;20.50;99.90;;;;;;5070314;28;20420;-72
2021/09/18 11:16:16;;;;;;;7.97;6.50;;;20.30;99.90;;;;;;5069622;28;20437;-72
2021/09/18 11:18:44;;;;;;;10.63;7.67;;;20.20;99.90;;;;;;5069096;28;20386;-72
2021/09/18 11:26:53;;;;;;;11.20;8.90;;;20.10;99.90;;;;;;5061779;28;20514;-74
2021/09/18 11:29:23;;;;;;;12.27;9.30;;;20.00;99.90;;;;;;5048550;28;20865;-76
2021/09/18 11:37:35;;;;;;;9.00;8.10;;;20.00;99.90;;;;;;5070022;28;20516;-71
2021/09/18 11:42:41;;;;;;;10.27;7.87;;;20.00;99.90;;;;;;5069108;28;20529;-70
2021/09/18 11:47:47;;;;;;;9.13;7.63;;;20.20;99.90;;;;;;5069971;28;20512;-71
2021/09/18 11:50:35;;;;;;;10.73;9.30;;;20.40;99.90;;;;;;5069570;28;20391;-71
2021/09/18 11:53:04;;;;;;;11.00;7.50;;;20.50;99.90;;;;;;5048984;28;20401;-71
2021/09/18 11:55:35;;;;;;;10.00;8.47;;;20.70;99.90;;;;;;5049917;28;20409;-71
2021/09/18 11:58:08;;;;;;;8.90;7.30;;;20.80;99.90;;;;;;5050040;28;20398;-71
2021/09/18 12:00:35;;;;;;;20.03;12.80;;;20.90;99.90;;;;;;5053499;28;20442;-71
2021/09/18 12:03:02;;;;;;;19.83;14.43;;;21.00;99.90;;;;;;5050123;28;20402;-71
2021/09/18 12:05:27;;;;;;;25.87;18.57;;;21.00;99.90;;;;;;5049856;28;20403;-71
2021/09/18 12:07:53;;;;;;;17.73;14.07;;;21.00;99.90;;;;;;5049670;28;20390;-71
2021/09/18 12:10:20;;;;;;;21.27;14.17;;;20.90;99.90;;;;;;5049705;28;20167;-71
2021/09/18 12:12:53;;;;;;;15.90;14.27;;;20.90;99.90;;;;;;5067377;28;20179;-71
2021/09/18 12:15:40;;;;;;;14.93;13.13;;;20.80;99.90;;;;;;5069587;28;20447;-72
2021/09/18 12:18:07;;;;;;;15.73;14.03;;;20.70;99.90;;;;;;5056409;28;20490;-71
2021/09/18 12:20:36;;;;;;;16.33;14.30;;;20.60;99.90;;;;;;5049763;28;20441;-72
2021/09/18 12:23:02;;;;;;;17.23;15.27;;;20.50;99.90;;;;;;5069395;28;20433;-71
2021/09/18 12:25:31;;;;;;;16.00;12.77;;;20.40;99.90;;;;;;5069663;28;20390;-71
2021/09/18 12:28:00;;;;;;;18.10;13.73;;;20.30;99.90;;;;;;5069508;28;20398;-71
2021/09/18 12:30:37;;;;;;;14.73;12.70;;;20.20;99.90;;;;;;5064681;28;20425;-71
2021/09/18 12:33:07;;;;;;;15.30;13.70;;;20.20;99.90;;;;;;5054769;28;20480;-71
2021/09/18 12:35:41;;;;;;;13.97;12.17;;;20.10;99.90;;;;;;5065123;28;21003;-71
2021/09/18 12:38:07;;;;;;;15.67;11.90;;;20.00;99.90;;;;;;5069325;28;20480;-71
2021/09/18 12:40:44;;;;;;;16.53;12.23;;;19.90;99.90;;;;;;5069214;28;20464;-72
2021/09/18 12:45:49;;;;;;;12.40;10.67;;;19.90;99.90;;;;;;5070342;28;20520;-71
2021/09/18 12:58:51;;;;;;;11.97;10.20;;;20.00;99.90;;;;;;5106113;27;21071;-72
2021/09/18 13:01:19;;;;;;;11.10;10.00;;;20.80;99.90;;;;;;5090268;28;20485;-71
2021/09/18 13:03:58;;;;;;;13.00;10.60;;;20.90;99.90;;;;;;5090135;28;20416;-71
2021/09/18 13:06:24;;;;;;;14.87;11.90;;;20.90;99.90;;;;;;5090322;28;20389;-71
2021/09/18 13:08:55;;;;;;;13.43;12.00;;;20.90;99.90;;;;;;5080372;28;20405;-71
2021/09/18 13:11:23;;;;;;;15.00;11.50;;;20.90;99.90;;;;;;5070376;28;20163;-71
2021/09/18 13:13:50;;;;;;;16.43;12.93;;;20.90;99.90;;;;;;5085273;28;20412;-71
2021/09/18 13:16:18;;;;;;;14.23;12.47;;;20.70;99.90;;;;;;5090338;28;20393;-71
2021/09/18 13:18:59;;;;;;;12.90;10.83;;;20.60;99.90;;;;;;5090379;28;20401;-71
2021/09/18 13:21:24;;;;;;;13.03;10.87;;;20.50;99.90;;;;;;5090152;28;20882;-70
2021/09/18 13:23:50;;;;;;;11.57;10.23;;;20.40;99.90;;;;;;5090004;28;20416;-71
2021/09/18 13:26:15;;;;;;;12.97;10.73;;;20.30;99.90;;;;;;5076059;28;20190;-71
2021/09/18 13:28:49;;;;;;;16.33;11.73;;;20.20;99.90;;;;;;5069754;28;20191;-71
2021/09/18 13:31:15;;;;;;;12.40;11.13;;;20.20;99.90;;;;;;5069788;28;20682;-71
2021/09/18 13:33:40;;;;;;;12.50;9.57;;;20.10;99.90;;;;;;5085669;28;20408;-71
2021/09/18 13:36:06;;;;;;;11.63;10.27;;;20.10;99.90;;;;;;5090040;28;20221;-71